sensor_id;sensor_type;location;lat;lon;timestamp;temperature;humidity
78514;SHT31;67814;51.976;5.810;2023-10-08T00:00:21;20.7;68.5
78514;SHT31;67814;51.976;5.810;2023-10-08T00:03:09;20.7;68.8
78514;SHT31;67814;51.976;5.810;2023-10-08T00:05:40;20.6;69.0
78514;SHT31;67814;51.976;5.810;2023-10-08T00:08:09;20.6;69.0
78514;SHT31;67814;51.976;5.810;2023-10-08T00:10:41;20.6;69.1
78514;SHT31;67814;51.976;5.810;2023-10-08T00:13:11;20.6;69.1
78514;SHT31;67814;51.976;5.810;2023-10-08T00:15:42;20.6;69.2
78514;SHT31;67814;51.976;5.810;2023-10-08T00:18:17;20.6;69.2
78514;SHT31;67814;51.976;5.810;2023-10-08T00:20:48;20.6;69.3
78514;SHT31;67814;51.976;5.810;2023-10-08T00:23:21;20.6;69.4
78514;SHT31;67814;51.976;5.810;2023-10-08T00:25:52;20.6;69.6
78514;SHT31;67814;51.976;5.810;2023-10-08T00:28:21;20.6;69.6
78514;SHT31;67814;51.976;5.810;2023-10-08T00:30:50;20.6;69.7
78514;SHT31;67814;51.976;5.810;2023-10-08T00:33:20;20.6;69.8
78514;SHT31;67814;51.976;5.810;2023-10-08T00:35:48;20.6;69.8
78514;SHT31;67814;51.976;5.810;2023-10-08T00:38:17;20.5;69.9
78514;SHT31;67814;51.976;5.810;2023-10-08T00:40:47;20.5;70.0
78514;SHT31;67814;51.976;5.810;2023-10-08T00:43:31;20.5;70.1
78514;SHT31;67814;51.976;5.810;2023-10-08T00:46:01;20.5;70.1
78514;SHT31;67814;51.976;5.810;2023-10-08T00:48:35;20.5;70.0
78514;SHT31;67814;51.976;5.810;2023-10-08T00:51:04;20.5;70.2
78514;SHT31;67814;51.976;5.810;2023-10-08T00:53:44;20.5;70.1
78514;SHT31;67814;51.976;5.810;2023-10-08T00:56:13;20.5;70.1
78514;SHT31;67814;51.976;5.810;2023-10-08T00:58:45;20.5;70.3
78514;SHT31;67814;51.976;5.810;2023-10-08T01:01:19;20.5;70.2
78514;SHT31;67814;51.976;5.810;2023-10-08T01:03:49;20.5;70.3
78514;SHT31;67814;51.976;5.810;2023-10-08T01:06:18;20.5;70.3
78514;SHT31;67814;51.976;5.810;2023-10-08T01:08:48;20.5;70.4
78514;SHT31;67814;51.976;5.810;2023-10-08T01:11:20;20.5;70.4
78514;SHT31;67814;51.976;5.810;2023-10-08T01:13:55;20.5;70.4
78514;SHT31;67814;51.976;5.810;2023-10-08T01:16:25;20.5;70.5
78514;SHT31;67814;51.976;5.810;2023-10-08T01:18:56;20.5;70.5
78514;SHT31;67814;51.976;5.810;2023-10-08T01:21:28;20.5;70.6
78514;SHT31;67814;51.976;5.810;2023-10-08T01:24:04;20.5;70.6
78514;SHT31;67814;51.976;5.810;2023-10-08T01:26:34;20.5;70.5
78514;SHT31;67814;51.976;5.810;2023-10-08T01:29:08;20.5;70.5
78514;SHT31;67814;51.976;5.810;2023-10-08T01:31:42;20.5;70.6
78514;SHT31;67814;51.976;5.810;2023-10-08T01:34:10;20.5;70.5
78514;SHT31;67814;51.976;5.810;2023-10-08T01:36:42;20.5;70.6
78514;SHT31;67814;51.976;5.810;2023-10-08T01:39:12;20.5;70.5
78514;SHT31;67814;51.976;5.810;2023-10-08T01:41:43;20.5;70.6
78514;SHT31;67814;51.976;5.810;2023-10-08T01:44:13;20.5;70.7
78514;SHT31;67814;51.976;5.810;2023-10-08T01:46:42;20.5;70.7
78514;SHT31;67814;51.976;5.810;2023-10-08T01:49:14;20.5;70.8
78514;SHT31;67814;51.976;5.810;2023-10-08T01:51:47;20.4;70.9
78514;SHT31;67814;51.976;5.810;2023-10-08T01:54:16;20.4;70.9
78514;SHT31;67814;51.976;5.810;2023-10-08T01:56:47;20.4;70.9
78514;SHT31;67814;51.976;5.810;2023-10-08T01:59:16;20.4;71.0
78514;SHT31;67814;51.976;5.810;2023-10-08T02:01:45;20.4;71.2
78514;SHT31;67814;51.976;5.810;2023-10-08T02:04:16;20.3;71.3
78514;SHT31;67814;51.976;5.810;2023-10-08T02:06:44;20.3;71.4
78514;SHT31;67814;51.976;5.810;2023-10-08T02:09:14;20.3;71.5
78514;SHT31;67814;51.976;5.810;2023-10-08T02:11:44;20.3;71.6
78514;SHT31;67814;51.976;5.810;2023-10-08T02:14:16;20.3;71.7
78514;SHT31;67814;51.976;5.810;2023-10-08T02:16:46;20.3;71.9
78514;SHT31;67814;51.976;5.810;2023-10-08T02:19:16;20.2;72.0
78514;SHT31;67814;51.976;5.810;2023-10-08T02:21:51;20.2;72.1
78514;SHT31;67814;51.976;5.810;2023-10-08T02:24:21;20.2;72.2
78514;SHT31;67814;51.976;5.810;2023-10-08T02:26:50;20.1;72.3
78514;SHT31;67814;51.976;5.810;2023-10-08T02:29:23;20.1;72.3
78514;SHT31;67814;51.976;5.810;2023-10-08T02:31:52;20.1;72.3
78514;SHT31;67814;51.976;5.810;2023-10-08T02:34:21;20.1;72.3
78514;SHT31;67814;51.976;5.810;2023-10-08T02:36:50;20.1;72.2
78514;SHT31;67814;51.976;5.810;2023-10-08T02:39:18;20.1;72.2
78514;SHT31;67814;51.976;5.810;2023-10-08T02:41:53;20.2;72.0
78514;SHT31;67814;51.976;5.810;2023-10-08T02:44:25;20.2;72.1
78514;SHT31;67814;51.976;5.810;2023-10-08T02:46:56;20.2;71.9
78514;SHT31;67814;51.976;5.810;2023-10-08T02:49:25;20.2;71.8
78514;SHT31;67814;51.976;5.810;2023-10-08T02:51:56;20.2;71.9
78514;SHT31;67814;51.976;5.810;2023-10-08T02:54:25;20.1;72.0
78514;SHT31;67814;51.976;5.810;2023-10-08T02:57:03;20.1;72.2
78514;SHT31;67814;51.976;5.810;2023-10-08T02:59:37;20.1;72.4
78514;SHT31;67814;51.976;5.810;2023-10-08T03:02:09;20.1;72.7
78514;SHT31;67814;51.976;5.810;2023-10-08T03:04:46;20.0;72.6
78514;SHT31;67814;51.976;5.810;2023-10-08T03:07:15;20.0;72.7
78514;SHT31;67814;51.976;5.810;2023-10-08T03:09:51;20.0;72.8
78514;SHT31;67814;51.976;5.810;2023-10-08T03:12:26;20.0;72.9
78514;SHT31;67814;51.976;5.810;2023-10-08T03:14:58;20.0;72.8
78514;SHT31;67814;51.976;5.810;2023-10-08T03:17:37;20.0;72.9
78514;SHT31;67814;51.976;5.810;2023-10-08T03:20:13;19.9;73.0
78514;SHT31;67814;51.976;5.810;2023-10-08T03:22:56;19.9;73.2
78514;SHT31;67814;51.976;5.810;2023-10-08T03:25:25;19.9;73.1
78514;SHT31;67814;51.976;5.810;2023-10-08T03:27:57;19.9;73.0
78514;SHT31;67814;51.976;5.810;2023-10-08T03:30:25;19.9;73.2
78514;SHT31;67814;51.976;5.810;2023-10-08T03:32:54;19.9;73.3
78514;SHT31;67814;51.976;5.810;2023-10-08T03:35:23;19.9;73.2
78514;SHT31;67814;51.976;5.810;2023-10-08T03:38:00;20.0;73.1
78514;SHT31;67814;51.976;5.810;2023-10-08T03:40:38;20.0;73.0
78514;SHT31;67814;51.976;5.810;2023-10-08T03:43:10;20.0;72.8
78514;SHT31;67814;51.976;5.810;2023-10-08T03:45:48;20.0;72.7
78514;SHT31;67814;51.976;5.810;2023-10-08T03:48:18;20.0;72.5
78514;SHT31;67814;51.976;5.810;2023-10-08T03:50:48;20.0;72.4
78514;SHT31;67814;51.976;5.810;2023-10-08T03:53:23;20.0;72.3
78514;SHT31;67814;51.976;5.810;2023-10-08T03:55:51;20.0;72.2
78514;SHT31;67814;51.976;5.810;2023-10-08T03:58:23;20.0;72.3
78514;SHT31;67814;51.976;5.810;2023-10-08T04:01:01;19.9;72.6
78514;SHT31;67814;51.976;5.810;2023-10-08T04:03:37;19.9;72.8
78514;SHT31;67814;51.976;5.810;2023-10-08T04:06:16;19.9;72.7
78514;SHT31;67814;51.976;5.810;2023-10-08T04:08:48;19.9;72.8
78514;SHT31;67814;51.976;5.810;2023-10-08T04:11:28;19.9;73.1
78514;SHT31;67814;51.976;5.810;2023-10-08T04:14:02;19.9;72.9
78514;SHT31;67814;51.976;5.810;2023-10-08T04:16:32;19.9;72.6
78514;SHT31;67814;51.976;5.810;2023-10-08T04:19:03;19.9;72.7
78514;SHT31;67814;51.976;5.810;2023-10-08T04:21:34;19.9;72.7
78514;SHT31;67814;51.976;5.810;2023-10-08T04:24:03;19.9;72.8
78514;SHT31;67814;51.976;5.810;2023-10-08T04:26:35;19.9;72.6
78514;SHT31;67814;51.976;5.810;2023-10-08T04:29:08;19.9;72.6
78514;SHT31;67814;51.976;5.810;2023-10-08T04:31:42;20.0;72.6
78514;SHT31;67814;51.976;5.810;2023-10-08T04:34:13;20.0;72.5
78514;SHT31;67814;51.976;5.810;2023-10-08T04:36:44;20.0;72.7
78514;SHT31;67814;51.976;5.810;2023-10-08T04:39:14;20.0;72.8
78514;SHT31;67814;51.976;5.810;2023-10-08T04:41:48;20.0;72.8
78514;SHT31;67814;51.976;5.810;2023-10-08T04:44:20;20.0;71.6
78514;SHT31;67814;51.976;5.810;2023-10-08T04:46:49;19.9;70.8
78514;SHT31;67814;51.976;5.810;2023-10-08T04:49:19;19.9;70.5
78514;SHT31;67814;51.976;5.810;2023-10-08T04:51:59;19.7;69.2
78514;SHT31;67814;51.976;5.810;2023-10-08T04:54:31;19.6;68.9
78514;SHT31;67814;51.976;5.810;2023-10-08T04:57:05;19.4;69.4
78514;SHT31;67814;51.976;5.810;2023-10-08T04:59:39;19.2;69.9
78514;SHT31;67814;51.976;5.810;2023-10-08T05:02:08;19.1;70.3
78514;SHT31;67814;51.976;5.810;2023-10-08T05:04:54;19.0;70.7
78514;SHT31;67814;51.976;5.810;2023-10-08T05:07:40;19.0;71.2
78514;SHT31;67814;51.976;5.810;2023-10-08T05:10:27;18.9;70.8
78514;SHT31;67814;51.976;5.810;2023-10-08T05:13:28;18.9;71.0
78514;SHT31;67814;51.976;5.810;2023-10-08T05:16:08;18.8;70.8
78514;SHT31;67814;51.976;5.810;2023-10-08T05:18:52;18.8;70.6
78514;SHT31;67814;51.976;5.810;2023-10-08T05:21:40;18.7;70.5
78514;SHT31;67814;51.976;5.810;2023-10-08T05:24:15;18.7;70.7
78514;SHT31;67814;51.976;5.810;2023-10-08T05:26:48;18.7;70.0
78514;SHT31;67814;51.976;5.810;2023-10-08T05:29:22;18.6;70.0
78514;SHT31;67814;51.976;5.810;2023-10-08T05:32:18;18.6;70.4
78514;SHT31;67814;51.976;5.810;2023-10-08T05:35:04;18.5;70.1
78514;SHT31;67814;51.976;5.810;2023-10-08T05:38:03;18.5;70.3
78514;SHT31;67814;51.976;5.810;2023-10-08T05:40:37;18.4;70.3
78514;SHT31;67814;51.976;5.810;2023-10-08T05:43:17;18.4;70.2
78514;SHT31;67814;51.976;5.810;2023-10-08T05:45:56;18.3;70.3
78514;SHT31;67814;51.976;5.810;2023-10-08T05:48:29;18.3;69.8
78514;SHT31;67814;51.976;5.810;2023-10-08T05:51:08;18.2;70.3
78514;SHT31;67814;51.976;5.810;2023-10-08T05:53:46;18.1;70.2
78514;SHT31;67814;51.976;5.810;2023-10-08T05:56:18;18.1;70.1
78514;SHT31;67814;51.976;5.810;2023-10-08T05:59:01;18.0;70.4
78514;SHT31;67814;51.976;5.810;2023-10-08T06:01:39;17.9;70.2
78514;SHT31;67814;51.976;5.810;2023-10-08T06:04:08;17.9;70.6
78514;SHT31;67814;51.976;5.810;2023-10-08T06:06:54;17.8;71.2
78514;SHT31;67814;51.976;5.810;2023-10-08T06:09:31;17.8;70.9
78514;SHT31;67814;51.976;5.810;2023-10-08T06:12:05;17.7;70.8
78514;SHT31;67814;51.976;5.810;2023-10-08T06:14:45;17.7;69.8
78514;SHT31;67814;51.976;5.810;2023-10-08T06:17:36;17.6;69.9
78514;SHT31;67814;51.976;5.810;2023-10-08T06:20:30;17.5;70.1
78514;SHT31;67814;51.976;5.810;2023-10-08T06:23:03;17.4;70.7
78514;SHT31;67814;51.976;5.810;2023-10-08T06:25:33;17.4;70.6
78514;SHT31;67814;51.976;5.810;2023-10-08T06:28:08;17.3;70.6
78514;SHT31;67814;51.976;5.810;2023-10-08T06:30:39;17.2;70.3
78514;SHT31;67814;51.976;5.810;2023-10-08T06:33:09;17.2;70.8
78514;SHT31;67814;51.976;5.810;2023-10-08T06:35:39;17.1;70.8
78514;SHT31;67814;51.976;5.810;2023-10-08T06:38:11;17.1;71.1
78514;SHT31;67814;51.976;5.810;2023-10-08T06:40:44;17.0;70.9
78514;SHT31;67814;51.976;5.810;2023-10-08T06:43:14;17.0;70.9
78514;SHT31;67814;51.976;5.810;2023-10-08T06:45:45;17.0;70.5
78514;SHT31;67814;51.976;5.810;2023-10-08T06:48:14;16.9;71.0
78514;SHT31;67814;51.976;5.810;2023-10-08T06:50:47;16.9;70.4
78514;SHT31;67814;51.976;5.810;2023-10-08T06:53:17;16.8;71.0
78514;SHT31;67814;51.976;5.810;2023-10-08T06:55:48;16.8;70.9
78514;SHT31;67814;51.976;5.810;2023-10-08T06:58:21;16.7;71.4
78514;SHT31;67814;51.976;5.810;2023-10-08T07:00:54;16.7;70.9
78514;SHT31;67814;51.976;5.810;2023-10-08T07:03:25;16.7;71.1
78514;SHT31;67814;51.976;5.810;2023-10-08T07:05:54;16.7;71.2
78514;SHT31;67814;51.976;5.810;2023-10-08T07:08:25;16.7;71.1
78514;SHT31;67814;51.976;5.810;2023-10-08T07:10:55;16.7;71.5
78514;SHT31;67814;51.976;5.810;2023-10-08T07:13:25;16.7;71.2
78514;SHT31;67814;51.976;5.810;2023-10-08T07:15:56;16.7;70.6
78514;SHT31;67814;51.976;5.810;2023-10-08T07:18:29;16.6;70.8
78514;SHT31;67814;51.976;5.810;2023-10-08T07:21:00;16.6;71.3
78514;SHT31;67814;51.976;5.810;2023-10-08T07:23:33;16.6;70.7
78514;SHT31;67814;51.976;5.810;2023-10-08T07:26:03;16.7;71.0
78514;SHT31;67814;51.976;5.810;2023-10-08T07:28:39;16.7;70.4
78514;SHT31;67814;51.976;5.810;2023-10-08T07:31:14;16.7;70.9
78514;SHT31;67814;51.976;5.810;2023-10-08T07:33:45;16.7;70.5
78514;SHT31;67814;51.976;5.810;2023-10-08T07:36:14;16.7;70.3
78514;SHT31;67814;51.976;5.810;2023-10-08T07:38:44;16.8;70.0
78514;SHT31;67814;51.976;5.810;2023-10-08T07:41:13;16.8;69.8
78514;SHT31;67814;51.976;5.810;2023-10-08T07:43:43;16.8;70.1
78514;SHT31;67814;51.976;5.810;2023-10-08T07:46:15;16.8;70.1
78514;SHT31;67814;51.976;5.810;2023-10-08T07:48:45;16.8;69.6
78514;SHT31;67814;51.976;5.810;2023-10-08T07:51:13;16.9;69.6
78514;SHT31;67814;51.976;5.810;2023-10-08T07:53:43;16.9;69.6
78514;SHT31;67814;51.976;5.810;2023-10-08T07:56:13;16.9;69.4
78514;SHT31;67814;51.976;5.810;2023-10-08T07:58:46;16.9;69.7
78514;SHT31;67814;51.976;5.810;2023-10-08T08:01:15;16.9;70.0
78514;SHT31;67814;51.976;5.810;2023-10-08T08:03:43;16.9;70.2
78514;SHT31;67814;51.976;5.810;2023-10-08T08:06:15;17.0;70.5
78514;SHT31;67814;51.976;5.810;2023-10-08T08:08:43;17.0;69.9
78514;SHT31;67814;51.976;5.810;2023-10-08T08:11:12;17.1;69.3
78514;SHT31;67814;51.976;5.810;2023-10-08T08:13:44;17.1;68.9
78514;SHT31;67814;51.976;5.810;2023-10-08T08:16:15;17.1;69.2
78514;SHT31;67814;51.976;5.810;2023-10-08T08:18:48;17.2;68.8
78514;SHT31;67814;51.976;5.810;2023-10-08T08:21:19;17.2;69.0
78514;SHT31;67814;51.976;5.810;2023-10-08T08:23:50;17.2;69.6
78514;SHT31;67814;51.976;5.810;2023-10-08T08:26:21;17.2;69.4
78514;SHT31;67814;51.976;5.810;2023-10-08T08:28:57;17.2;69.6
78514;SHT31;67814;51.976;5.810;2023-10-08T08:31:27;17.2;69.8
78514;SHT31;67814;51.976;5.810;2023-10-08T08:33:58;17.3;70.1
78514;SHT31;67814;51.976;5.810;2023-10-08T08:36:30;17.3;70.4
78514;SHT31;67814;51.976;5.810;2023-10-08T08:38:59;17.3;70.2
78514;SHT31;67814;51.976;5.810;2023-10-08T08:41:30;17.3;70.2
78514;SHT31;67814;51.976;5.810;2023-10-08T08:44:04;17.2;71.7
78514;SHT31;67814;51.976;5.810;2023-10-08T08:46:35;17.2;72.6
78514;SHT31;67814;51.976;5.810;2023-10-08T08:49:07;17.2;72.0
78514;SHT31;67814;51.976;5.810;2023-10-08T08:51:38;17.3;71.5
78514;SHT31;67814;51.976;5.810;2023-10-08T08:54:07;17.2;72.4
78514;SHT31;67814;51.976;5.810;2023-10-08T08:56:38;17.2;72.1
78514;SHT31;67814;51.976;5.810;2023-10-08T08:59:10;17.2;72.2
78514;SHT31;67814;51.976;5.810;2023-10-08T09:01:40;17.2;72.4
78514;SHT31;67814;51.976;5.810;2023-10-08T09:04:10;17.1;72.7
78514;SHT31;67814;51.976;5.810;2023-10-08T09:06:43;17.1;72.8
78514;SHT31;67814;51.976;5.810;2023-10-08T09:09:12;17.1;73.0
78514;SHT31;67814;51.976;5.810;2023-10-08T09:11:47;17.0;73.8
78514;SHT31;67814;51.976;5.810;2023-10-08T09:14:19;17.0;74.0
78514;SHT31;67814;51.976;5.810;2023-10-08T09:16:49;17.0;73.4
78514;SHT31;67814;51.976;5.810;2023-10-08T09:19:18;17.0;74.5
78514;SHT31;67814;51.976;5.810;2023-10-08T09:22:05;17.0;73.2
78514;SHT31;67814;51.976;5.810;2023-10-08T09:24:35;17.0;72.8
78514;SHT31;67814;51.976;5.810;2023-10-08T09:27:05;17.1;72.8
78514;SHT31;67814;51.976;5.810;2023-10-08T09:29:35;17.1;72.2
78514;SHT31;67814;51.976;5.810;2023-10-08T09:32:10;17.1;71.3
78514;SHT31;67814;51.976;5.810;2023-10-08T09:34:40;17.2;70.3
78514;SHT31;67814;51.976;5.810;2023-10-08T09:37:09;17.2;71.2
78514;SHT31;67814;51.976;5.810;2023-10-08T09:39:43;17.3;69.9
78514;SHT31;67814;51.976;5.810;2023-10-08T09:42:12;17.3;70.6
78514;SHT31;67814;51.976;5.810;2023-10-08T09:44:41;17.4;69.2
78514;SHT31;67814;51.976;5.810;2023-10-08T09:47:12;17.4;69.2
78514;SHT31;67814;51.976;5.810;2023-10-08T09:49:53;17.5;68.3
78514;SHT31;67814;51.976;5.810;2023-10-08T09:52:33;17.5;66.1
78514;SHT31;67814;51.976;5.810;2023-10-08T09:55:10;17.6;66.0
78514;SHT31;67814;51.976;5.810;2023-10-08T09:57:38;17.6;66.2
78514;SHT31;67814;51.976;5.810;2023-10-08T10:00:08;17.6;65.6
78514;SHT31;67814;51.976;5.810;2023-10-08T10:02:41;17.6;65.5
78514;SHT31;67814;51.976;5.810;2023-10-08T10:05:12;17.6;65.4
78514;SHT31;67814;51.976;5.810;2023-10-08T10:07:42;17.6;65.6
78514;SHT31;67814;51.976;5.810;2023-10-08T10:10:27;17.6;65.9
78514;SHT31;67814;51.976;5.810;2023-10-08T10:12:59;17.7;65.4
78514;SHT31;67814;51.976;5.810;2023-10-08T10:15:28;17.7;65.0
78514;SHT31;67814;51.976;5.810;2023-10-08T10:18:11;17.8;66.3
78514;SHT31;67814;51.976;5.810;2023-10-08T10:20:44;17.8;64.8
78514;SHT31;67814;51.976;5.810;2023-10-08T10:23:35;17.9;65.2
78514;SHT31;67814;51.976;5.810;2023-10-08T10:26:25;17.9;65.7
78514;SHT31;67814;51.976;5.810;2023-10-08T10:29:19;18.0;65.0
78514;SHT31;67814;51.976;5.810;2023-10-08T10:31:51;18.1;64.3
78514;SHT31;67814;51.976;5.810;2023-10-08T10:34:24;18.1;63.9
78514;SHT31;67814;51.976;5.810;2023-10-08T10:36:56;18.2;64.1
78514;SHT31;67814;51.976;5.810;2023-10-08T10:39:26;18.2;64.6
78514;SHT31;67814;51.976;5.810;2023-10-08T10:41:58;18.3;63.8
78514;SHT31;67814;51.976;5.810;2023-10-08T10:44:28;18.4;63.9
78514;SHT31;67814;51.976;5.810;2023-10-08T10:46:59;18.4;63.9
78514;SHT31;67814;51.976;5.810;2023-10-08T10:49:45;18.5;63.5
78514;SHT31;67814;51.976;5.810;2023-10-08T10:52:20;18.5;64.1
78514;SHT31;67814;51.976;5.810;2023-10-08T10:54:58;18.6;63.6
78514;SHT31;67814;51.976;5.810;2023-10-08T10:57:32;18.7;62.9
78514;SHT31;67814;51.976;5.810;2023-10-08T11:00:09;18.7;64.2
78514;SHT31;67814;51.976;5.810;2023-10-08T11:02:53;18.8;62.4
78514;SHT31;67814;51.976;5.810;2023-10-08T11:05:27;18.9;62.0
78514;SHT31;67814;51.976;5.810;2023-10-08T11:07:59;18.9;61.7
78514;SHT31;67814;51.976;5.810;2023-10-08T11:10:31;18.9;61.8
78514;SHT31;67814;51.976;5.810;2023-10-08T11:13:01;18.9;61.8
78514;SHT31;67814;51.976;5.810;2023-10-08T11:15:31;18.9;61.9
78514;SHT31;67814;51.976;5.810;2023-10-08T11:18:06;18.9;61.1
78514;SHT31;67814;51.976;5.810;2023-10-08T11:20:36;18.9;61.8
78514;SHT31;67814;51.976;5.810;2023-10-08T11:23:06;19.0;61.5
78514;SHT31;67814;51.976;5.810;2023-10-08T11:25:55;19.0;61.3
78514;SHT31;67814;51.976;5.810;2023-10-08T11:28:26;19.0;61.9
78514;SHT31;67814;51.976;5.810;2023-10-08T11:30:56;19.0;61.6
78514;SHT31;67814;51.976;5.810;2023-10-08T11:33:32;19.1;61.1
78514;SHT31;67814;51.976;5.810;2023-10-08T11:36:03;19.1;60.5
78514;SHT31;67814;51.976;5.810;2023-10-08T11:38:40;19.1;61.2
78514;SHT31;67814;51.976;5.810;2023-10-08T11:41:14;19.1;60.6
78514;SHT31;67814;51.976;5.810;2023-10-08T11:43:53;19.1;62.6
78514;SHT31;67814;51.976;5.810;2023-10-08T11:46:24;19.1;60.8
78514;SHT31;67814;51.976;5.810;2023-10-08T11:49:01;19.1;61.8
78514;SHT31;67814;51.976;5.810;2023-10-08T11:51:34;19.1;60.7
78514;SHT31;67814;51.976;5.810;2023-10-08T11:54:03;19.1;60.7
78514;SHT31;67814;51.976;5.810;2023-10-08T11:56:33;19.1;61.1
78514;SHT31;67814;51.976;5.810;2023-10-08T11:59:02;19.1;62.4
78514;SHT31;67814;51.976;5.810;2023-10-08T12:01:35;19.1;61.5
78514;SHT31;67814;51.976;5.810;2023-10-08T12:04:04;19.1;61.2
78514;SHT31;67814;51.976;5.810;2023-10-08T12:06:38;19.1;61.3
78514;SHT31;67814;51.976;5.810;2023-10-08T12:09:11;19.1;61.3
78514;SHT31;67814;51.976;5.810;2023-10-08T12:11:41;19.1;61.5
78514;SHT31;67814;51.976;5.810;2023-10-08T12:14:10;19.1;63.0
78514;SHT31;67814;51.976;5.810;2023-10-08T12:16:40;19.0;62.1
78514;SHT31;67814;51.976;5.810;2023-10-08T12:19:12;19.0;61.6
78514;SHT31;67814;51.976;5.810;2023-10-08T12:21:44;19.0;62.2
78514;SHT31;67814;51.976;5.810;2023-10-08T12:24:14;19.0;62.3
78514;SHT31;67814;51.976;5.810;2023-10-08T12:26:43;19.0;62.6
78514;SHT31;67814;51.976;5.810;2023-10-08T12:29:14;19.1;62.7
78514;SHT31;67814;51.976;5.810;2023-10-08T12:31:43;19.1;62.4
78514;SHT31;67814;51.976;5.810;2023-10-08T12:34:14;19.1;61.9
78514;SHT31;67814;51.976;5.810;2023-10-08T12:36:43;19.1;62.6
78514;SHT31;67814;51.976;5.810;2023-10-08T12:39:12;19.1;63.1
78514;SHT31;67814;51.976;5.810;2023-10-08T12:41:43;19.1;63.1
78514;SHT31;67814;51.976;5.810;2023-10-08T12:44:12;19.2;62.2
78514;SHT31;67814;51.976;5.810;2023-10-08T12:46:42;19.2;62.3
78514;SHT31;67814;51.976;5.810;2023-10-08T12:49:14;19.2;63.5
78514;SHT31;67814;51.976;5.810;2023-10-08T12:51:43;19.2;62.8
78514;SHT31;67814;51.976;5.810;2023-10-08T12:54:11;19.2;63.5
78514;SHT31;67814;51.976;5.810;2023-10-08T12:56:47;19.2;63.2
78514;SHT31;67814;51.976;5.810;2023-10-08T12:59:16;19.2;63.5
78514;SHT31;67814;51.976;5.810;2023-10-08T13:01:50;19.2;65.2
78514;SHT31;67814;51.976;5.810;2023-10-08T13:04:21;19.3;63.8
78514;SHT31;67814;51.976;5.810;2023-10-08T13:06:53;19.3;64.4
78514;SHT31;67814;51.976;5.810;2023-10-08T13:09:24;19.4;63.7
78514;SHT31;67814;51.976;5.810;2023-10-08T13:11:53;19.4;64.6
78514;SHT31;67814;51.976;5.810;2023-10-08T13:14:23;19.4;64.6
78514;SHT31;67814;51.976;5.810;2023-10-08T13:16:52;19.4;64.9
78514;SHT31;67814;51.976;5.810;2023-10-08T13:19:22;19.4;63.8
78514;SHT31;67814;51.976;5.810;2023-10-08T13:21:52;19.5;63.6
78514;SHT31;67814;51.976;5.810;2023-10-08T13:24:21;19.5;63.8
78514;SHT31;67814;51.976;5.810;2023-10-08T13:26:51;19.5;63.9
78514;SHT31;67814;51.976;5.810;2023-10-08T13:29:20;19.5;64.2
78514;SHT31;67814;51.976;5.810;2023-10-08T13:31:49;19.5;65.1
78514;SHT31;67814;51.976;5.810;2023-10-08T13:34:19;19.4;64.9
78514;SHT31;67814;51.976;5.810;2023-10-08T13:36:48;19.4;64.7
78514;SHT31;67814;51.976;5.810;2023-10-08T13:39:16;19.4;64.7
78514;SHT31;67814;51.976;5.810;2023-10-08T13:41:47;19.4;64.7
78514;SHT31;67814;51.976;5.810;2023-10-08T13:44:18;19.4;64.4
78514;SHT31;67814;51.976;5.810;2023-10-08T13:46:52;19.4;65.2
78514;SHT31;67814;51.976;5.810;2023-10-08T13:49:23;19.4;65.4
78514;SHT31;67814;51.976;5.810;2023-10-08T13:51:52;19.4;64.8
78514;SHT31;67814;51.976;5.810;2023-10-08T13:54:24;19.5;64.8
78514;SHT31;67814;51.976;5.810;2023-10-08T13:56:55;19.5;64.5
78514;SHT31;67814;51.976;5.810;2023-10-08T13:59:24;19.5;65.7
78514;SHT31;67814;51.976;5.810;2023-10-08T14:01:54;19.5;66.5
78514;SHT31;67814;51.976;5.810;2023-10-08T14:04:23;19.5;65.7
78514;SHT31;67814;51.976;5.810;2023-10-08T14:06:56;19.5;65.2
78514;SHT31;67814;51.976;5.810;2023-10-08T14:09:25;19.5;66.2
78514;SHT31;67814;51.976;5.810;2023-10-08T14:12:03;19.4;66.3
78514;SHT31;67814;51.976;5.810;2023-10-08T14:14:33;19.4;66.4
78514;SHT31;67814;51.976;5.810;2023-10-08T14:17:02;19.4;66.2
78514;SHT31;67814;51.976;5.810;2023-10-08T14:19:32;19.4;66.1
78514;SHT31;67814;51.976;5.810;2023-10-08T14:22:06;19.4;66.0
78514;SHT31;67814;51.976;5.810;2023-10-08T14:24:35;19.4;66.3
78514;SHT31;67814;51.976;5.810;2023-10-08T14:27:05;19.4;66.3
78514;SHT31;67814;51.976;5.810;2023-10-08T14:29:39;19.4;66.3
78514;SHT31;67814;51.976;5.810;2023-10-08T14:32:10;19.4;66.0
78514;SHT31;67814;51.976;5.810;2023-10-08T14:34:39;19.4;66.2
78514;SHT31;67814;51.976;5.810;2023-10-08T14:37:24;19.4;66.2
78514;SHT31;67814;51.976;5.810;2023-10-08T14:40:09;19.4;65.9
78514;SHT31;67814;51.976;5.810;2023-10-08T14:42:54;19.3;65.7
78514;SHT31;67814;51.976;5.810;2023-10-08T14:45:29;19.3;66.3
78514;SHT31;67814;51.976;5.810;2023-10-08T14:48:01;19.3;66.4
78514;SHT31;67814;51.976;5.810;2023-10-08T14:50:32;19.2;66.7
78514;SHT31;67814;51.976;5.810;2023-10-08T14:53:02;19.2;67.1
78514;SHT31;67814;51.976;5.810;2023-10-08T14:55:32;19.2;67.1
78514;SHT31;67814;51.976;5.810;2023-10-08T14:58:03;19.1;67.1
78514;SHT31;67814;51.976;5.810;2023-10-08T15:00:34;19.1;67.1
78514;SHT31;67814;51.976;5.810;2023-10-08T15:03:05;19.1;66.8
78514;SHT31;67814;51.976;5.810;2023-10-08T15:05:35;19.1;67.5
78514;SHT31;67814;51.976;5.810;2023-10-08T15:08:06;19.1;67.6
78514;SHT31;67814;51.976;5.810;2023-10-08T15:10:38;19.1;66.8
78514;SHT31;67814;51.976;5.810;2023-10-08T15:13:07;19.1;67.1
78514;SHT31;67814;51.976;5.810;2023-10-08T15:15:36;19.1;66.9
78514;SHT31;67814;51.976;5.810;2023-10-08T15:18:06;19.1;66.8
78514;SHT31;67814;51.976;5.810;2023-10-08T15:20:39;19.1;66.4
78514;SHT31;67814;51.976;5.810;2023-10-08T15:23:09;19.1;66.4
78514;SHT31;67814;51.976;5.810;2023-10-08T15:25:39;19.1;66.3
78514;SHT31;67814;51.976;5.810;2023-10-08T15:28:08;19.1;65.9
78514;SHT31;67814;51.976;5.810;2023-10-08T15:30:39;19.1;67.2
78514;SHT31;67814;51.976;5.810;2023-10-08T15:33:08;19.1;66.1
78514;SHT31;67814;51.976;5.810;2023-10-08T15:35:38;19.2;66.0
78514;SHT31;67814;51.976;5.810;2023-10-08T15:38:07;19.2;65.9
78514;SHT31;67814;51.976;5.810;2023-10-08T15:40:37;19.2;66.2
78514;SHT31;67814;51.976;5.810;2023-10-08T15:43:06;19.2;66.5
78514;SHT31;67814;51.976;5.810;2023-10-08T15:45:35;19.2;66.3
78514;SHT31;67814;51.976;5.810;2023-10-08T15:48:06;19.2;66.7
78514;SHT31;67814;51.976;5.810;2023-10-08T15:50:34;19.2;65.7
78514;SHT31;67814;51.976;5.810;2023-10-08T15:53:03;19.2;66.2
78514;SHT31;67814;51.976;5.810;2023-10-08T15:55:34;19.1;65.9
78514;SHT31;67814;51.976;5.810;2023-10-08T15:58:02;19.1;66.1
78514;SHT31;67814;51.976;5.810;2023-10-08T16:00:31;19.1;66.3
78514;SHT31;67814;51.976;5.810;2023-10-08T16:03:00;19.1;66.3
78514;SHT31;67814;51.976;5.810;2023-10-08T16:05:31;19.0;67.2
78514;SHT31;67814;51.976;5.810;2023-10-08T16:08:00;19.0;66.6
78514;SHT31;67814;51.976;5.810;2023-10-08T16:10:28;19.0;66.6
78514;SHT31;67814;51.976;5.810;2023-10-08T16:12:57;19.0;66.4
78514;SHT31;67814;51.976;5.810;2023-10-08T16:15:25;18.9;66.5
78514;SHT31;67814;51.976;5.810;2023-10-08T16:17:54;18.9;66.4
78514;SHT31;67814;51.976;5.810;2023-10-08T16:20:23;18.9;66.6
78514;SHT31;67814;51.976;5.810;2023-10-08T16:22:52;18.9;66.6
78514;SHT31;67814;51.976;5.810;2023-10-08T16:25:20;18.8;66.8
78514;SHT31;67814;51.976;5.810;2023-10-08T16:27:50;18.8;66.7
78514;SHT31;67814;51.976;5.810;2023-10-08T16:30:22;18.8;67.0
78514;SHT31;67814;51.976;5.810;2023-10-08T16:32:54;18.8;67.2
78514;SHT31;67814;51.976;5.810;2023-10-08T16:35:24;18.7;67.3